createdAt,value
2018-02-12T00:16:29.681Z,4.60
2018-02-12T00:19:24.165Z,3.23
2018-02-12T00:25:26.729Z,3.67
2018-02-12T00:35:03.304Z,3.00
2018-02-12T01:58:38.694Z,6.10
2018-02-12T02:09:40.574Z,4.50
2018-02-12T02:21:19.452Z,4.80
2018-02-12T02:27:00.313Z,4.53
2018-02-12T02:29:51.761Z,4.70
2018-02-12T02:32:36.390Z,4.50
2018-02-12T02:40:56.150Z,4.67
2018-02-12T02:43:36.019Z,3.53
2018-02-12T03:03:14.081Z,3.20
2018-02-12T03:06:00.090Z,3.97
2018-02-12T03:08:47.261Z,3.67
2018-02-12T03:17:29.559Z,4.87
2018-02-12T03:22:50.688Z,4.50
2018-02-12T03:42:23.275Z,5.15
2018-02-12T03:45:17.455Z,5.20
2018-02-12T03:48:07.193Z,5.00
2018-02-12T03:50:57.428Z,4.77
2018-02-12T03:53:47.107Z,6.70
2018-02-12T03:56:26.641Z,4.80
2018-02-12T04:04:50.590Z,5.67
2018-02-12T04:10:18.776Z,5.80
2018-02-12T04:13:08.425Z,6.10
2018-02-12T04:15:49.141Z,6.03
2018-02-12T04:18:32.292Z,5.40
2018-02-12T04:27:08.523Z,6.40
2018-02-12T04:32:44.135Z,6.70
2018-02-12T04:38:26.081Z,5.50
2018-02-12T04:43:44.290Z,6.10
2018-02-12T04:46:18.498Z,6.07
2018-02-12T04:51:40.836Z,4.60
2018-02-12T05:02:46.446Z,4.30
2018-02-12T05:05:29.150Z,5.37
2018-02-12T05:37:29.940Z,5.20
2018-02-12T05:46:11.828Z,3.90
2018-02-12T05:49:07.916Z,2.93
2018-02-12T05:52:03.436Z,3.07
2018-02-12T06:00:22.997Z,4.00
2018-02-12T06:06:06.625Z,4.70
2018-02-12T06:08:58.143Z,4.70
2018-02-12T06:14:43.494Z,4.53
2018-02-12T09:55:21.923Z,7.50
2018-02-12T10:16:22.869Z,8.87
2018-02-12T10:19:18.510Z,8.10
2018-02-12T10:21:49.407Z,9.00
2018-02-12T10:24:17.272Z,9.53
2018-02-12T10:38:17.093Z,8.70
2018-02-12T10:40:44.949Z,7.47
2018-02-12T10:43:12.957Z,6.80
2018-02-12T11:52:59.054Z,4.90
2018-02-12T11:55:26.904Z,4.33
2018-02-12T11:57:54.965Z,3.67
2018-02-12T12:00:22.801Z,5.70
2018-02-12T12:02:50.614Z,4.23
2018-02-12T12:05:18.437Z,4.60
2018-02-12T12:07:46.222Z,4.67
2018-02-12T12:10:14.022Z,3.70
2018-02-12T12:12:42.404Z,3.73
2018-02-12T12:15:11.605Z,4.57
2018-02-12T12:17:39.441Z,4.10
2018-02-12T12:20:07.219Z,3.63
2018-02-12T12:22:35.159Z,3.83
2018-02-12T12:25:03.745Z,3.00
2018-02-12T12:27:32.310Z,2.70
2018-02-12T12:30:01.206Z,2.73
2018-02-12T12:32:37.925Z,2.97
2018-02-12T12:35:05.737Z,2.37
2018-02-12T12:37:33.583Z,2.63
2018-02-12T12:40:01.406Z,3.10
2018-02-12T12:42:29.258Z,2.80
2018-02-12T12:44:57.053Z,2.53
2018-02-12T12:47:25.746Z,2.97
2018-02-12T12:49:53.542Z,2.70
2018-02-12T12:52:22.010Z,2.43
2018-02-12T12:54:50.999Z,3.17
2018-02-12T12:57:19.464Z,2.93
2018-02-12T12:59:47.378Z,2.40
2018-02-12T13:02:15.995Z,2.03
2018-02-12T13:04:44.748Z,2.80
2018-02-12T13:07:14.048Z,3.10
2018-02-12T13:09:41.915Z,2.77
2018-02-12T13:12:12.188Z,4.10
2018-02-12T13:14:39.972Z,3.00
2018-02-12T13:17:07.765Z,2.10
2018-02-12T13:19:36.764Z,3.00
2018-02-12T13:22:06.087Z,2.80
2018-02-12T13:24:33.909Z,3.33
2018-02-12T13:27:01.789Z,2.63
2018-02-12T13:29:31.703Z,2.93
2018-02-12T13:31:59.503Z,2.43
2018-02-12T13:34:27.312Z,4.23
2018-02-12T13:36:56.475Z,2.77
2018-02-12T13:39:24.262Z,3.27
2018-02-12T13:41:52.081Z,3.70
2018-02-12T13:44:19.960Z,3.87
2018-02-12T13:46:47.780Z,3.20
2018-02-12T13:49:18.340Z,2.80
2018-02-12T13:51:46.177Z,3.90
2018-02-12T13:54:14.024Z,3.80
2018-02-12T13:56:43.292Z,3.10
2018-02-12T13:59:13.232Z,3.53
2018-02-12T14:01:41.157Z,2.47
2018-02-12T14:04:10.103Z,3.53
2018-02-12T14:06:37.946Z,2.63
2018-02-12T14:09:06.233Z,3.20
2018-02-12T14:11:34.058Z,3.40
2018-02-12T14:14:01.871Z,3.33
2018-02-12T14:16:30.491Z,2.90
2018-02-12T14:19:00.020Z,3.03
2018-02-12T14:21:28.465Z,3.17
2018-02-12T14:23:56.257Z,2.77
2018-02-12T14:26:24.111Z,3.57
2018-02-12T14:28:52.732Z,2.67
2018-02-12T14:31:20.552Z,3.17
2018-02-12T14:33:49.147Z,3.87
2018-02-12T14:36:16.966Z,3.30
2018-02-12T14:38:44.768Z,3.33
2018-02-12T14:41:13.339Z,3.93
2018-02-12T14:43:41.116Z,2.80
2018-02-12T14:46:09.672Z,3.20
2018-02-12T14:48:37.562Z,4.57
2018-02-12T14:51:06.179Z,3.30
2018-02-12T14:53:34.001Z,2.90
2018-02-12T14:56:02.584Z,3.40
2018-02-12T14:58:30.404Z,3.50
2018-02-12T15:00:58.226Z,3.40
2018-02-12T15:03:26.793Z,2.90
2018-02-12T15:05:55.383Z,4.50
2018-02-12T15:08:23.961Z,4.93
2018-02-12T15:10:52.524Z,3.10
2018-02-12T15:13:20.483Z,3.70
2018-02-12T15:15:48.423Z,3.33
2018-02-12T15:18:16.236Z,4.62
2018-02-12T15:20:44.015Z,3.43
2018-02-12T15:23:12.604Z,3.70
2018-02-12T15:25:41.246Z,2.70
2018-02-12T15:28:09.069Z,4.60
2018-02-12T15:30:36.908Z,2.87
2018-02-12T15:33:05.556Z,3.10
2018-02-12T15:35:33.365Z,2.70
2018-02-12T15:38:01.932Z,3.60
2018-02-12T15:40:29.883Z,3.70
2018-02-12T15:42:57.713Z,3.37
2018-02-12T15:45:25.528Z,3.07
2018-02-12T15:47:54.149Z,2.60
2018-02-12T15:50:21.962Z,2.80
2018-02-12T15:52:50.202Z,2.60
2018-02-12T15:55:18.034Z,2.77
2018-02-12T15:57:47.635Z,3.57
2018-02-12T16:00:17.184Z,3.07
2018-02-12T16:02:45.863Z,3.07
2018-02-12T16:05:14.674Z,3.50
2018-02-12T16:07:43.299Z,4.20
2018-02-12T16:10:11.838Z,3.70
2018-02-12T16:12:39.658Z,3.07
2018-02-12T16:15:07.625Z,3.80
2018-02-12T16:17:36.334Z,4.20
2018-02-12T16:20:05.113Z,2.63
2018-02-12T16:22:33.907Z,2.90
2018-02-12T16:25:01.684Z,4.13
2018-02-12T16:27:29.530Z,4.10
2018-02-12T16:29:58.109Z,4.47
2018-02-12T16:32:27.618Z,5.23
2018-02-12T16:34:56.371Z,4.30
2018-02-12T16:37:24.240Z,4.40
2018-02-12T16:39:52.035Z,5.57
2018-02-12T16:42:20.341Z,5.60
2018-02-12T16:44:48.152Z,5.10
2018-02-12T16:47:18.647Z,5.63
2018-02-12T16:49:46.455Z,4.57
2018-02-12T16:52:18.147Z,4.57
2018-02-12T16:54:46.059Z,4.37
2018-02-12T16:57:13.921Z,4.43
2018-02-12T16:59:42.897Z,4.87
2018-02-12T17:02:10.672Z,4.33
2018-02-12T17:04:38.463Z,5.10
2018-02-12T17:07:07.166Z,5.23
2018-02-12T17:09:36.736Z,6.10
2018-02-12T17:12:04.559Z,6.67
2018-02-12T17:14:33.663Z,6.00
2018-02-12T17:17:02.016Z,4.60
2018-02-12T17:19:29.870Z,3.97
2018-02-12T17:21:58.504Z,5.43
2018-02-12T17:24:26.369Z,5.77
2018-02-12T17:26:54.149Z,8.23
2018-02-12T17:29:22.920Z,9.37
2018-02-12T17:31:50.701Z,7.37
2018-02-12T17:34:19.329Z,7.87
2018-02-12T17:36:47.526Z,6.50
2018-02-12T17:39:16.134Z,5.60
2018-02-12T17:41:44.020Z,5.00
2018-02-12T17:44:12.937Z,5.47
2018-02-12T17:46:41.261Z,4.77
2018-02-12T17:49:09.338Z,4.73
2018-02-12T17:51:37.192Z,3.70
2018-02-12T17:54:05.900Z,5.87
2018-02-12T17:56:33.786Z,5.80
2018-02-12T17:59:05.253Z,4.50
2018-02-12T18:01:33.671Z,5.00
2018-02-12T18:04:01.471Z,5.77
2018-02-12T18:06:29.388Z,5.73
2018-02-12T18:08:57.244Z,4.67
2018-02-12T18:11:27.956Z,5.03
2018-02-12T18:13:55.780Z,4.37
2018-02-12T18:16:23.589Z,4.90
2018-02-12T18:18:51.978Z,5.17
2018-02-12T18:21:19.803Z,4.70
2018-02-12T18:23:47.674Z,6.77
2018-02-12T18:26:16.269Z,6.27
2018-02-12T18:28:44.862Z,5.70
2018-02-12T18:31:13.427Z,5.73
2018-02-12T18:33:41.238Z,4.60
2018-02-12T18:36:09.477Z,5.07
2018-02-12T18:38:38.097Z,5.90
2018-02-12T18:41:13.838Z,6.63
2018-02-12T18:43:42.489Z,6.03
2018-02-12T18:46:11.975Z,5.47
2018-02-12T18:48:39.846Z,5.60
2018-02-12T18:51:07.761Z,5.87
2018-02-12T18:53:35.868Z,4.73
2018-02-12T18:56:11.481Z,5.83
2018-02-12T18:58:43.070Z,6.03
2018-02-12T19:01:26.389Z,5.17
2018-02-12T19:06:34.977Z,7.63
2018-02-12T19:09:02.849Z,5.47
2018-02-12T19:11:31.515Z,5.33
2018-02-12T19:13:59.309Z,7.93
2018-02-12T19:16:27.907Z,7.67
2018-02-12T19:18:56.465Z,6.37
2018-02-12T19:21:24.309Z,6.37
2018-02-12T19:23:52.111Z,6.20
2018-02-12T19:26:19.919Z,6.57
2018-02-12T19:28:47.727Z,6.13
2018-02-12T19:31:15.595Z,7.07
2018-02-12T19:33:43.616Z,6.30
2018-02-12T19:36:11.481Z,6.53
2018-02-12T19:38:39.305Z,7.27
2018-02-12T19:41:07.124Z,5.20
2018-02-12T19:43:34.980Z,5.50
2018-02-12T19:46:02.785Z,16.47
2018-02-12T19:48:30.615Z,8.93
2018-02-12T19:50:58.418Z,7.83
2018-02-12T19:53:26.205Z,8.73
2018-02-12T19:55:54.783Z,8.40
2018-02-12T19:58:22.601Z,23.00
2018-02-12T20:00:50.405Z,14.50
2018-02-12T20:03:18.190Z,8.23
2018-02-12T20:08:41.998Z,7.33
2018-02-12T20:11:09.784Z,7.17
2018-02-12T20:13:37.597Z,5.93
2018-02-12T20:16:05.439Z,6.47
2018-02-12T20:18:34.036Z,7.70
2018-02-12T20:21:02.658Z,6.67
2018-02-12T20:23:30.469Z,5.97
2018-02-12T20:26:00.314Z,6.77
2018-02-12T20:28:28.167Z,6.03
2018-02-12T20:30:56.004Z,6.28
2018-02-12T20:33:26.334Z,8.00
2018-02-12T20:35:56.287Z,6.87
2018-02-12T20:38:24.108Z,7.20
2018-02-12T20:40:52.736Z,8.20
2018-02-12T20:43:20.580Z,8.30
2018-02-12T20:45:49.981Z,7.80
2018-02-12T20:48:19.970Z,7.57
2018-02-12T20:50:47.789Z,7.20
2018-02-12T20:53:16.337Z,6.63
2018-02-12T20:55:45.079Z,7.80
2018-02-12T21:00:47.792Z,6.60
2018-02-12T21:03:15.608Z,7.30
2018-02-12T21:05:44.285Z,7.73
2018-02-12T21:08:12.100Z,8.40
2018-02-12T21:10:39.900Z,6.93
2018-02-12T21:13:09.357Z,7.07
2018-02-12T21:15:37.195Z,7.07
2018-02-12T21:18:05.063Z,6.03
2018-02-12T21:20:32.963Z,6.03
2018-02-12T21:23:03.009Z,7.13
2018-02-12T21:25:31.623Z,7.20
2018-02-12T21:27:59.531Z,7.40
2018-02-12T21:30:27.531Z,6.20
2018-02-12T21:32:56.312Z,8.67
